»·PEaware :: N335AK KSAC-F70

N335AK :: KSAC-F70

FLIGHT INFORMATION

Flight Status: Arrived
Operator: Privately registered:
United States
More flights under this callsign
Pilot: Gabor H. (24209)
Aircraft: Unknown
(EPIC)
More flights by this aircraft type
Origin: KSAC Sacramento Executive
United States
Destination: F70 French Valley
United States
More flights between these airports :: More routes between these airports
Route: FROGO LHS PMD V137 HITOP
File this flight plan on PilotEdge
Remarks:
Altitude:
(Current/Filed)
31,000ft
Speed:
(Current/Filed)
325kts
Departed: 20-Oct-20 01:52 PM
Arrived: 20-Oct-20 03:15 PM
Distance/Time
Traveled:
364nm/1:22
Distance/Time
To Go:
Arrived

Flight Plot

Page will automatically refresh every two minutes.

Flight plan parsing failed; only flown route is shown


Map Options




Map Legend


Flown Route
Filed Route
Departure Airport
Arrival Airport
Navaid (VOR, NDB)
Fix

Horizontal Profiles

Position Reports

Time Latitude Longitude Heading Altitude Ground
Speed
20-Oct-20 13:38 38.514889 -121.499480 137 23ft 0kts
20-Oct-20 13:39 38.514889 -121.499480 137 23ft 0kts
20-Oct-20 13:40 38.514889 -121.499480 137 23ft 0kts
20-Oct-20 13:41 38.514889 -121.499480 137 23ft 0kts
20-Oct-20 13:42 38.514889 -121.499480 137 23ft 0kts
20-Oct-20 13:43 38.514889 -121.499480 137 23ft 0kts
20-Oct-20 13:44 38.514889 -121.499480 137 23ft 0kts
20-Oct-20 13:45 38.514889 -121.499480 137 23ft 0kts
20-Oct-20 13:46 38.514884 -121.499473 137 23ft 0kts
20-Oct-20 13:47 38.513990 -121.496991 124 23ft 14kts
20-Oct-20 13:48 38.515523 -121.493844 33 24ft 9kts
20-Oct-20 13:49 38.519207 -121.490474 91 25ft 3kts
20-Oct-20 13:50 38.519205 -121.490417 93 25ft 0kts
20-Oct-20 13:51 38.515795 -121.491907 214 25ft 80kts
20-Oct-20 13:52 38.476626 -121.493517 163 1811ft 185kts
20-Oct-20 13:53 38.419769 -121.471907 163 2018ft 220kts
20-Oct-20 13:54 38.369041 -121.435514 113 2425ft 223kts
20-Oct-20 13:55 38.347578 -121.363836 102 5619ft 221kts
20-Oct-20 13:56 38.334282 -121.285956 101 8553ft 230kts
20-Oct-20 13:57 38.320617 -121.205104 100 11336ft 240kts
20-Oct-20 13:58 38.306421 -121.121432 101 14003ft 247kts
20-Oct-20 13:59 38.291680 -121.034975 101 16488ft 255kts
20-Oct-20 14:00 38.276453 -120.945916 103 18153ft 268kts
20-Oct-20 14:01 38.260306 -120.852445 103 19522ft 270kts
20-Oct-20 14:02 38.244331 -120.760118 103 21007ft 265kts
20-Oct-20 14:03 38.217775 -120.677799 146 22500ft 253kts
20-Oct-20 14:04 38.156757 -120.635709 154 23983ft 249kts
20-Oct-20 14:05 38.095382 -120.597374 155 25467ft 243kts
20-Oct-20 14:06 38.034733 -120.559673 155 26692ft 246kts
20-Oct-20 14:07 37.972865 -120.521293 155 27706ft 251kts
20-Oct-20 14:08 37.909497 -120.482050 155 28605ft 256kts
20-Oct-20 14:09 37.845134 -120.442274 155 29440ft 260kts
20-Oct-20 14:10 37.779795 -120.401971 154 30180ft 264kts
20-Oct-20 14:12 37.713373 -120.361078 155 30835ft 268kts
20-Oct-20 14:13 37.644135 -120.318553 155 30930ft 287kts
20-Oct-20 14:14 37.570469 -120.273403 155 30928ft 301kts
20-Oct-20 14:15 37.494068 -120.226674 155 30928ft 309kts
20-Oct-20 14:16 37.416594 -120.179387 155 30930ft 312kts
20-Oct-20 14:17 37.337921 -120.131492 155 30934ft 314kts
20-Oct-20 14:18 37.259165 -120.083652 155 30938ft 315kts
20-Oct-20 14:19 37.180023 -120.035690 155 30943ft 316kts
20-Oct-20 14:20 37.100770 -119.987771 155 30943ft 317kts
20-Oct-20 14:21 37.021080 -119.939747 153 30945ft 322kts
20-Oct-20 14:22 36.939972 -119.890918 151 30944ft 325kts
20-Oct-20 14:23 36.859653 -119.842680 151 30937ft 325kts
20-Oct-20 14:24 36.778262 -119.793928 151 30935ft 325kts
20-Oct-20 14:25 36.696887 -119.745306 151 30934ft 325kts
20-Oct-20 14:26 36.615519 -119.696804 151 30933ft 325kts
20-Oct-20 14:26 36.547795 -119.656517 151 30930ft 325kts
20-Oct-20 14:28 36.452449 -119.599935 151 30926ft 325kts
20-Oct-20 14:28 36.384502 -119.559706 151 30926ft 325kts
20-Oct-20 14:30 36.289478 -119.503579 151 30927ft 325kts
20-Oct-20 14:30 36.221476 -119.463506 151 30928ft 325kts
20-Oct-20 14:31 36.139799 -119.415479 151 30931ft 326kts
20-Oct-20 14:32 36.058016 -119.367500 151 30933ft 326kts
20-Oct-20 14:33 35.976931 -119.320039 151 30935ft 326kts
20-Oct-20 14:34 35.896589 -119.273116 151 30923ft 327kts
20-Oct-20 14:35 35.813682 -119.224812 151 30912ft 326kts
20-Oct-20 14:36 35.731710 -119.177157 151 30912ft 326kts
20-Oct-20 14:37 35.649765 -119.129632 151 30908ft 326kts
20-Oct-20 14:38 35.567914 -119.082268 151 30912ft 326kts
20-Oct-20 14:39 35.485861 -119.034893 151 30917ft 326kts
20-Oct-20 14:40 35.404492 -118.988020 151 30916ft 319kts
20-Oct-20 14:41 35.325144 -118.942411 151 30916ft 312kts
20-Oct-20 14:42 35.247250 -118.897729 152 30916ft 308kts
20-Oct-20 14:43 35.169883 -118.853451 152 30930ft 306kts
20-Oct-20 14:44 35.093574 -118.809870 152 31003ft 302kts
20-Oct-20 14:45 35.017559 -118.766532 153 31074ft 300kts
20-Oct-20 14:46 34.942834 -118.723926 159 31065ft 294kts
20-Oct-20 14:47 34.868561 -118.681871 163 31073ft 304kts
20-Oct-20 14:48 34.789730 -118.637245 162 31047ft 319kts
20-Oct-20 14:49 34.708047 -118.590917 157 30998ft 330kts
20-Oct-20 14:50 34.673488 -118.480225 97 29733ft 390kts
20-Oct-20 14:51 34.659943 -118.345025 97 27960ft 411kts
20-Oct-20 14:52 34.645948 -118.206348 96 26096ft 415kts
20-Oct-20 14:53 34.631026 -118.067451 106 24225ft 413kts
20-Oct-20 14:54 34.577810 -117.946278 119 22434ft 406kts
20-Oct-20 14:55 34.524042 -117.828743 119 20661ft 392kts
20-Oct-20 14:56 34.471759 -117.714863 119 18946ft 380kts
20-Oct-20 14:57 34.421014 -117.604723 119 17281ft 365kts
20-Oct-20 14:58 34.372770 -117.500283 119 15701ft 348kts
20-Oct-20 14:59 34.326070 -117.399481 118 14176ft 340kts
20-Oct-20 15:00 34.257649 -117.330843 165 12629ft 332kts
20-Oct-20 15:01 34.168672 -117.303630 166 11155ft 328kts
20-Oct-20 15:02 34.085893 -117.279101 167 10237ft 276kts
20-Oct-20 15:03 34.016897 -117.258669 167 9015ft 234kts
20-Oct-20 15:04 33.959096 -117.241587 167 8608ft 215kts
20-Oct-20 15:05 33.900233 -117.224226 167 6989ft 218kts
20-Oct-20 15:06 33.843665 -117.204344 161 5828ft 202kts
20-Oct-20 15:07 33.794242 -117.177774 156 5505ft 200kts
20-Oct-20 15:08 33.743472 -117.148821 156 4561ft 208kts
20-Oct-20 15:09 33.694420 -117.121332 157 3459ft 158kts
20-Oct-20 15:10 33.663786 -117.105731 173 2647ft 109kts
20-Oct-20 15:11 33.635521 -117.110284 200 2759ft 105kts
20-Oct-20 15:12 33.608267 -117.120335 191 2267ft 104kts
20-Oct-20 15:13 33.582287 -117.126365 193 1377ft 79kts
20-Oct-20 15:14 33.577630 -117.128358 200 1346ft 11kts
20-Oct-20 15:15 33.575299 -117.130196 186 1343ft 1kts
20-Oct-20 15:16 33.575008 -117.130641 146 1338ft 0kts

Navigation Log

Ident Type
Flight plan parsing failed, navigation log unavailable